Stewart Heights, Texas
Current Conditions -  °F | °C
As of 11:14 PM on Wednesday 28 Jan 2015 (Local Time) from KEFD Reporting Station
Light Fog Light Fog  
Wind Chill: 59°   Ceiling: Unl
Heat Index: 59°   Visibility: 7mi
Dew Point: 59°   Wind: 3mph
Humidity: 100%   Direction: 170°S
Pressure: 30.18"   Gusts: NA
Location:  29.7803°N, 94.894°W
Report Text: KEFD 290514Z 17003KT 7SM MIFG FEW250 15/15 A3018
Loading
Personal Weather Stations






























Interactive Weather Map New forecast layout! Learn more

10-Day Weather Forecast

Advertisements
Track Severe Weather on mobile